CheckWX is a tool to help pilots better visualize weather data.  It is not intended as a substitute for an official pre-flight weather briefing.

19:08:13 UTC

KFMM METAR
Fort Morgan Municipal Airport
Fort Morgan, Colorado, USA
Current

33 mins ago

KFMM 221835Z AUTO 08006KT 2SM BR M05/M06 A2985 RMK AO2 T10501060
Observed
Feb-22 @ 18:35 UTC
Wind
  • 080° at 6 KTS
Visibility
2 SM
Conditions
Mist
Temperature
-5°C / 23°F
Dewpoint
-6°C / 21°F
Humidity
93%
Altimeter
29.85" Hg
Pressure
1010.82 hPa
Previous

53 mins ago

KFMM 221815Z AUTO 09005KT 2 1/2SM BR M05/M06 A2987 RMK AO2 T10521061
Observed
Feb-22 @ 18:15 UTC
Wind
  • 090° at 5 KTS
Visibility
2 1/2 SM
Conditions
Mist
Temperature
-5°C / 23°F
Dewpoint
-6°C / 21°F
Humidity
93%
Altimeter
29.87" Hg
Pressure
1011.52 hPa
Previous

1 hour ago

KFMM 221755Z AUTO 09005KT 2 1/2SM BR M05/M06 A2987 RMK AO2 T10551064 11055 21071
Observed
Feb-22 @ 17:55 UTC
Wind
  • 090° at 5 KTS
Visibility
2 1/2 SM
Conditions
Mist
Temperature
-6°C / 21°F
Dewpoint
-6°C / 21°F
Humidity
100%
Altimeter
29.87" Hg
Pressure
1011.52 hPa